Ibiza Airport

Airport
ICAO code: 
LEIB
IATA Code: 
IBZ
Summary
ICAO Region: 
EUR
Territory: 
Location: 
Es Codolá, Ibiza, Balearics,
Serving: 
Ibiza
Elevation: 
24 ft
Coordinates: 
Aerial View: 
38° 52' 24" N, 1° 22' 24" E
Metar
Observation
LEIB 041100Z 24013KT CAVOK 17/08 Q1018 NOSIG
Station
Ibiza / Es Codola
Date/Time
2021-12-04 11:00:00
Wind direction
240°
Wind speed
13 kts
Lowest cloud amount
clouds and visibility OK
Temperature
17°C
Dew point
8°C
Humidity
55%
QNH
1018 hPa
Weather condition
n/a

International airport serving island of Ibiza.

Climatology

Dry-summer subtropical ”Mediterranean" climate (Köppen climate classification Csa) - characterized by hot, dry summers and mild winters. During the summer, subtropical high pressure cells dominate, making rainfall unlikely except for the occasional thunderstorm. In the winter, periodic storms bring rain.

Runways

Designator Length Width Surface Rops
6/24 2800 45 ASP Yes/Yes
Airport map: 
Aerial View: 

Accidents and Serious Incidents at or in the vicinity of LEIB

SKYbrary Partners:

Safety knowledge contributed by: